Time;durP1;ratioP1;P1;durP2;ratioP2;P2;SDS_P1;SDS_P2;PMS_P1;PMS_P2;Temp;Humidity;BMP_temperature;BMP_pressure;BME280_temperature;BME280_humidity;BME280_pressure;Samples;Min_cycle;Max_cycle;Signal;HPM_P1;HPM_P2
2023/12/12 00:00:14;;;;;;;57.23;29.57;;;;;;;-143.21;79.06;73099.53;5037161;28;20201;-83
2023/12/12 00:02:41;;;;;;;62.13;30.03;;;;;;;-143.21;78.34;73071.75;5038109;28;20221;-89
2023/12/12 00:05:09;;;;;;;56.27;29.13;;;;;;;-143.21;78.49;73061.84;5031768;28;20202;-85
2023/12/12 00:07:36;;;;;;;59.00;29.23;;;;;;;-143.21;78.03;73049.94;5038498;28;20205;-89
2023/12/12 00:10:05;;;;;;;60.67;30.10;;;;;;;-143.21;78.32;73071.75;5032736;28;20214;-87
2023/12/12 00:12:31;;;;;;;61.57;29.37;;;;;;;-143.21;77.38;73089.63;5042566;28;20226;-89
2023/12/12 00:14:58;;;;;;;67.63;31.63;;;;;;;-143.21;78.19;73109.44;5029978;28;20257;-88
2023/12/12 00:17:25;;;;;;;60.90;32.13;;;;;;;-143.21;80.21;73101.53;5031599;28;20573;-90
2023/12/12 00:19:52;;;;;;;62.83;30.90;;;;;;;-143.21;81.15;73095.56;5030339;28;20212;-88
2023/12/12 00:22:19;;;;;;;65.90;31.53;;;;;;;-143.21;81.69;73081.69;5029038;28;20225;-88
2023/12/12 00:24:46;;;;;;;60.23;31.53;;;;;;;-143.21;80.95;73109.44;5030645;28;20215;-88
2023/12/12 00:27:14;;;;;;;60.07;30.90;;;;;;;-143.21;81.79;73131.28;5031029;28;20207;-90
2023/12/12 00:29:41;;;;;;;55.60;30.00;;;;;;;-143.21;81.33;73135.25;5024799;28;20204;-90
2023/12/12 00:32:09;;;;;;;56.37;28.93;;;;;;;-143.21;81.26;73127.31;5032375;28;20213;-90
2023/12/12 00:34:36;;;;;;;61.57;30.73;;;;;;;-143.21;81.33;73109.44;5032362;28;20645;-90
2023/12/12 00:37:04;;;;;;;62.83;31.60;;;;;;;-143.21;81.18;73091.59;5031562;28;20193;-91
2023/12/12 00:39:30;;;;;;;62.80;31.90;;;;;;;-143.21;80.80;73085.66;5031185;28;20215;-90
2023/12/12 00:41:57;;;;;;;74.07;36.67;;;;;;;-143.21;80.28;73073.75;5031639;28;20608;-90
2023/12/12 00:44:26;;;;;;;72.57;37.47;;;;;;;-143.21;79.30;73047.97;5031734;28;20225;-90
2023/12/12 00:46:53;;;;;;;75.17;38.10;;;;;;;-143.21;78.89;73040.03;5031376;28;20202;-90
2023/12/12 00:49:20;;;;;;;72.80;36.53;;;;;;;-143.21;78.03;73024.16;5031153;28;20195;-90
2023/12/12 00:51:46;;;;;;;69.43;35.70;;;;;;;-143.21;77.68;73034.06;5031516;28;20574;-90
2023/12/12 00:54:13;;;;;;;66.23;35.57;;;;;;;-143.21;77.60;73069.78;5030351;28;20197;-90
2023/12/12 01:00:14;;;;;;;75.43;37.07;;;;;;;-143.21;81.55;73127.31;4951673;28;20222;-90
2023/12/12 01:02:41;;;;;;;70.07;37.00;;;;;;;-143.21;81.76;73109.44;5023115;28;20304;-89
2023/12/12 01:05:08;;;;;;;69.73;35.73;;;;;;;-143.21;81.43;73087.63;5030145;28;20470;-90
2023/12/12 01:07:35;;;;;;;71.23;35.97;;;;;;;-143.21;81.26;73097.56;5030417;28;20240;-90
2023/12/12 01:10:02;;;;;;;64.40;35.30;;;;;;;-143.21;80.89;73083.66;5031611;28;20313;-89
2023/12/12 01:12:29;;;;;;;66.87;33.63;;;;;;;-143.21;80.13;73085.66;5031575;28;20245;-88
2023/12/12 01:14:58;;;;;;;61.57;31.97;;;;;;;-143.21;80.05;73087.63;5030578;28;20198;-88
2023/12/12 01:17:26;;;;;;;58.50;28.30;;;;;;;-143.21;79.26;73073.75;5030093;28;20204;-89
2023/12/12 01:19:53;;;;;;;55.33;28.97;;;;;;;-143.21;78.45;73065.81;5029945;28;20199;-90
2023/12/12 01:22:20;;;;;;;49.17;27.27;;;;;;;-143.21;78.59;73057.88;5031364;28;20575;-91
2023/12/12 01:24:47;;;;;;;57.17;27.20;;;;;;;-143.21;78.32;73051.94;5030691;28;20213;-90
2023/12/12 01:27:15;;;;;;;55.63;26.47;;;;;;;-143.21;78.51;73057.88;5030286;28;20632;-90
2023/12/12 01:29:41;;;;;;;50.70;26.43;;;;;;;-143.21;78.13;73063.84;5032262;28;20696;-89
2023/12/12 01:32:09;;;;;;;51.73;26.17;;;;;;;-143.21;78.15;73065.81;5032635;28;20213;-89
2023/12/12 01:34:37;;;;;;;49.40;26.20;;;;;;;-143.21;77.64;73087.63;5031550;28;20289;-88
2023/12/12 01:37:04;;;;;;;47.30;26.13;;;;;;;-143.21;79.00;73123.34;5029870;28;20209;-87
2023/12/12 01:39:31;;;;;;;48.50;25.87;;;;;;;-143.21;80.90;73121.34;5027709;28;20215;-88
2023/12/12 01:41:58;;;;;;;47.93;25.07;;;;;;;-143.21;80.89;73105.47;5027392;28;20209;-88
2023/12/12 01:44:25;;;;;;;52.77;27.30;;;;;;;-143.21;81.02;73091.59;5030789;28;20197;-89
2023/12/12 01:46:52;;;;;;;51.83;27.33;;;;;;;-143.21;81.06;73073.75;5030079;28;20209;-89
2023/12/12 01:49:19;;;;;;;50.33;25.47;;;;;;;-143.21;80.13;73067.78;5030861;28;20229;-89
2023/12/12 01:51:48;;;;;;;57.73;27.20;;;;;;;-143.21;80.12;73057.88;5031410;28;20284;-89
2023/12/12 01:54:18;;;;;;;53.10;27.27;;;;;;;-143.21;79.37;73051.94;5031321;28;20209;-89
2023/12/12 01:56:49;;;;;;;55.27;27.57;;;;;;;-143.21;79.76;73044.00;5028707;28;20217;-89
2023/12/12 01:59:16;;;;;;;48.77;26.70;;;;;;;-143.21;78.87;73040.03;5030010;28;20194;-88
2023/12/12 02:01:44;;;;;;;54.87;26.17;;;;;;;-143.21;78.19;73051.94;5030729;28;20198;-88
2023/12/12 02:04:12;;;;;;;55.10;26.07;;;;;;;-143.21;77.53;73032.09;5030941;28;20230;-88
2023/12/12 02:06:41;;;;;;;47.83;25.73;;;;;;;-143.21;77.20;73067.78;5030907;28;20219;-87
2023/12/12 02:09:10;;;;;;;57.33;26.57;;;;;;;-143.21;77.11;73067.78;5030039;28;20199;-87
2023/12/12 02:11:37;;;;;;;54.83;27.33;;;;;;;-143.21;77.66;73087.63;5029715;28;20217;-88
2023/12/12 02:14:03;;;;;;;53.73;26.97;;;;;;;-143.21;77.73;73119.38;5043012;28;20245;-88
2023/12/12 02:16:30;;;;;;;55.73;27.97;;;;;;;-143.21;78.57;73182.84;5042226;28;20228;-88
2023/12/12 02:18:57;;;;;;;54.30;28.13;;;;;;;-143.21;81.09;73198.72;5038869;28;20206;-86
2023/12/12 02:21:25;;;;;;;57.10;28.40;;;;;;;-143.21;81.55;73184.84;5035110;28;20334;-87
2023/12/12 02:23:52;;;;;;;58.77;29.03;;;;;;;-143.21;81.58;73188.78;5038204;28;20705;-85
2023/12/12 02:26:19;;;;;;;55.73;28.03;;;;;;;-143.21;81.82;73178.88;5041518;28;20212;-85
2023/12/12 02:28:46;;;;;;;58.23;29.30;;;;;;;-143.21;81.39;73170.94;5041833;28;20197;-85
2023/12/12 02:31:15;;;;;;;62.53;28.10;;;;;;;-143.21;80.98;73159.03;5042425;28;20219;-86
2023/12/12 02:33:42;;;;;;;55.70;28.87;;;;;;;-143.21;81.30;73153.09;5040873;28;20211;-86
2023/12/12 02:36:09;;;;;;;57.10;29.33;;;;;;;-143.21;80.42;73149.13;5042735;28;20220;-86
2023/12/12 02:38:38;;;;;;;61.13;28.63;;;;;;;-143.21;79.87;73151.09;5035211;28;20197;-87
2023/12/12 02:41:05;;;;;;;58.67;27.87;;;;;;;-143.21;79.58;73145.16;5048671;28;20204;-87
2023/12/12 02:43:31;;;;;;;50.77;28.47;;;;;;;-143.21;78.70;73147.13;5049714;28;20236;-87
2023/12/12 02:45:58;;;;;;;56.93;28.87;;;;;;;-143.21;78.27;73145.16;5054007;28;20300;-87
2023/12/12 02:48:27;;;;;;;55.03;27.50;;;;;;;-143.21;78.13;73147.13;5046444;28;20215;-89
2023/12/12 02:50:54;;;;;;;56.47;27.80;;;;;;;-143.21;77.57;73153.09;5034621;28;20197;-88
2023/12/12 02:53:21;;;;;;;56.33;26.87;;;;;;;-143.21;78.23;73166.97;5034697;28;20193;-88
2023/12/12 02:55:48;;;;;;;56.60;27.97;;;;;;;-143.21;79.06;73170.94;5035647;28;20224;-89
2023/12/12 02:58:15;;;;;;;56.00;27.97;;;;;;;-143.21;79.18;73196.72;5028209;28;20657;-88
2023/12/12 03:00:42;;;;;;;54.63;29.43;;;;;;;-143.21;79.79;73224.50;5037721;28;20672;-90
2023/12/12 03:03:08;;;;;;;56.97;30.87;;;;;;;-143.21;80.84;73230.47;5046517;28;20241;-88
2023/12/12 03:05:35;;;;;;;57.63;29.47;;;;;;;-143.21;81.52;73228.47;5041648;28;20211;-88
2023/12/12 03:08:02;;;;;;;55.23;28.00;;;;;;;-143.21;82.08;73236.41;5035468;28;20200;-88
2023/12/12 03:10:29;;;;;;;55.17;26.77;;;;;;;-143.21;82.72;73216.56;5029069;28;20216;-89
2023/12/12 03:12:57;;;;;;;50.87;26.27;;;;;;;-143.21;82.31;73210.63;5044222;28;20236;-88
2023/12/12 03:15:26;;;;;;;44.73;22.80;;;;;;;-143.21;82.12;73196.72;5040761;28;20257;-88
2023/12/12 03:17:52;;;;;;;45.87;23.60;;;;;;;-143.21;81.94;73196.72;5028573;28;20211;-88
2023/12/12 03:20:21;;;;;;;43.83;23.33;;;;;;;-143.21;82.34;73198.72;5040843;28;20199;-88
2023/12/12 03:22:48;;;;;;;55.50;24.07;;;;;;;-143.21;82.09;73165.00;5048145;28;20219;-87
2023/12/12 03:25:15;;;;;;;46.53;24.03;;;;;;;-143.21;81.68;73168.97;5046077;28;20201;-88
2023/12/12 03:27:42;;;;;;;43.60;23.97;;;;;;;-143.21;81.56;73155.06;5041106;28;20209;-87
2023/12/12 03:30:11;;;;;;;47.43;24.27;;;;;;;-143.21;80.97;73145.16;5036677;28;20209;-88
2023/12/12 03:32:39;;;;;;;50.57;24.27;;;;;;;-143.21;80.22;73133.25;5038843;28;20238;-88
2023/12/12 03:35:06;;;;;;;50.40;24.70;;;;;;;-143.21;80.63;73137.22;5046150;28;20211;-88
2023/12/12 03:37:34;;;;;;;50.37;25.10;;;;;;;-143.21;80.92;73133.25;5037783;28;20597;-87
2023/12/12 03:40:01;;;;;;;49.47;24.43;;;;;;;-143.21;80.92;73127.31;5042954;28;20229;-88
2023/12/12 03:42:28;;;;;;;50.73;25.83;;;;;;;-143.21;80.52;73153.09;5040929;28;20282;-88
2023/12/12 03:44:55;;;;;;;46.10;24.53;;;;;;;-143.21;81.18;73184.84;5045632;28;20223;-89
2023/12/12 03:47:23;;;;;;;47.70;23.40;;;;;;;-143.21;82.76;73174.91;5033825;28;20214;-89
2023/12/12 03:49:50;;;;;;;47.03;23.83;;;;;;;-143.21;82.74;73166.97;5042107;28;20199;-89
2023/12/12 03:52:17;;;;;;;43.70;23.33;;;;;;;-143.21;82.25;73163.00;5041129;28;20200;-89
2023/12/12 03:54:44;;;;;;;49.03;23.40;;;;;;;-143.21;82.10;73155.06;5040152;28;20218;-89
2023/12/12 03:57:11;;;;;;;45.37;22.70;;;;;;;-143.21;81.57;73135.25;5047054;28;20678;-88
2023/12/12 03:59:38;;;;;;;50.53;24.80;;;;;;;-143.21;81.16;73129.28;5049996;28;20201;-89
2023/12/12 04:02:05;;;;;;;45.23;24.83;;;;;;;-143.21;80.50;73109.44;5033138;28;20213;-88
2023/12/12 04:04:33;;;;;;;46.67;24.67;;;;;;;-143.21;80.05;73105.47;5044154;28;20231;-88
2023/12/12 04:07:00;;;;;;;51.93;26.47;;;;;;;-143.21;80.39;73117.38;5051725;28;20220;-90
2023/12/12 04:09:27;;;;;;;56.07;27.00;;;;;;;-143.21;80.43;73125.31;5042616;28;20213;-87
2023/12/12 04:11:54;;;;;;;59.17;28.47;;;;;;;-143.21;79.55;73113.41;5051373;28;20229;-87
2023/12/12 04:14:21;;;;;;;51.03;26.10;;;;;;;-143.21;79.67;73125.31;5050121;28;20208;-88
2023/12/12 04:16:47;;;;;;;52.30;27.20;;;;;;;-143.21;79.82;73135.25;5056018;28;20574;-86
2023/12/12 04:19:14;;;;;;;51.20;25.53;;;;;;;-143.21;79.19;73129.28;5061441;28;20217;-89
2023/12/12 04:21:44;;;;;;;47.03;26.07;;;;;;;-143.21;78.77;73121.34;5055688;28;20217;-87
2023/12/12 04:24:11;;;;;;;52.67;26.53;;;;;;;-143.21;77.99;73109.44;5046230;28;20219;-88
2023/12/12 04:26:38;;;;;;;46.10;25.67;;;;;;;-143.21;78.40;73119.38;5047535;28;20309;-88
2023/12/12 04:29:08;;;;;;;51.77;26.10;;;;;;;-143.21;78.84;73155.06;5050489;28;20252;-90
2023/12/12 04:31:35;;;;;;;51.13;26.57;;;;;;;-143.21;80.42;73202.69;5052641;28;20209;-89
2023/12/12 04:34:02;;;;;;;50.97;26.80;;;;;;;-143.21;81.74;73196.72;5048124;28;20191;-88
2023/12/12 04:36:29;;;;;;;48.67;26.23;;;;;;;-143.21;81.58;73192.75;5045286;28;20220;-86
2023/12/12 04:38:57;;;;;;;54.17;26.07;;;;;;;-143.21;81.58;73165.00;5044609;28;20218;-89
2023/12/12 04:41:24;;;;;;;58.00;26.87;;;;;;;-143.21;80.51;73155.06;5037401;28;20212;-87
2023/12/12 04:43:51;;;;;;;52.53;25.63;;;;;;;-143.21;80.47;73151.09;5037570;28;20224;-89
2023/12/12 04:46:19;;;;;;;45.90;24.80;;;;;;;-143.21;79.78;73147.13;5046489;28;20212;-89
2023/12/12 04:48:46;;;;;;;50.13;25.60;;;;;;;-143.21;79.81;73139.22;5042271;28;20213;-89
2023/12/12 04:51:13;;;;;;;49.97;26.33;;;;;;;-143.21;79.61;73133.25;5033553;28;20206;-77
2023/12/12 04:53:40;;;;;;;53.90;25.70;;;;;;;-143.21;79.50;73123.34;5027510;28;20213;-79
2023/12/12 04:56:09;;;;;;;51.67;24.90;;;;;;;-143.21;78.74;73113.41;5020098;28;20566;-78
2023/12/12 04:58:35;;;;;;;48.23;25.07;;;;;;;-143.21;78.44;73103.50;5026368;28;20205;-77
2023/12/12 05:01:02;;;;;;;51.63;25.80;;;;;;;-143.21;77.85;73107.47;5020191;28;20235;-77
2023/12/12 05:03:29;;;;;;;49.00;24.73;;;;;;;-143.21;78.17;73107.47;5022544;28;20324;-77
2023/12/12 05:05:56;;;;;;;43.20;24.20;;;;;;;-143.21;78.39;73109.44;5019572;28;20306;-77
2023/12/12 05:08:23;;;;;;;50.30;25.33;;;;;;;-143.21;78.51;73113.41;5021326;28;20502;-78
2023/12/12 05:10:49;;;;;;;50.70;26.30;;;;;;;-143.21;78.49;73121.34;5025777;28;20617;-77
2023/12/12 05:13:18;;;;;;;44.20;23.67;;;;;;;-143.21;77.65;73137.22;5022356;28;20728;-77
2023/12/12 05:15:45;;;;;;;44.87;24.23;;;;;;;-143.21;77.09;73143.16;5025698;28;20289;-77
2023/12/12 05:18:12;;;;;;;46.83;23.87;;;;;;;-143.21;78.18;73176.91;5026322;28;20216;-78
2023/12/12 05:20:38;;;;;;;44.27;24.50;;;;;;;-143.21;80.17;73188.78;5023294;28;20221;-77
2023/12/12 05:23:05;;;;;;;51.33;24.90;;;;;;;-143.21;79.19;73170.94;5027860;28;20220;-79
2023/12/12 05:25:32;;;;;;;52.50;28.10;;;;;;;-143.21;79.71;73168.97;5027078;28;20209;-79
2023/12/12 05:27:59;;;;;;;63.97;31.77;;;;;;;-143.21;79.50;73165.00;5026241;28;20220;-78
2023/12/12 05:30:27;;;;;;;66.00;35.10;;;;;;;-143.21;79.38;73157.06;5022883;28;20197;-77
2023/12/12 05:32:54;;;;;;;63.17;33.57;;;;;;;-143.21;79.42;73143.16;5024782;28;20206;-78
2023/12/12 05:35:22;;;;;;;64.03;34.57;;;;;;;-143.21;78.68;73125.31;5021803;28;20210;-78
2023/12/12 05:37:48;;;;;;;58.10;31.20;;;;;;;-143.21;78.21;73127.31;5021998;28;20209;-78
2023/12/12 05:40:15;;;;;;;48.73;26.63;;;;;;;-143.21;77.61;73127.31;5019680;28;20201;-79
2023/12/12 05:42:43;;;;;;;54.30;27.17;;;;;;;-143.21;77.45;73127.31;5022241;28;20230;-77
2023/12/12 05:45:10;;;;;;;51.37;26.30;;;;;;;-143.21;77.85;73133.25;5022775;28;20227;-77
2023/12/12 05:47:40;;;;;;;57.10;27.97;;;;;;;-143.21;77.09;73127.31;5024388;28;20194;-78
2023/12/12 05:50:09;;;;;;;50.27;26.87;;;;;;;-143.21;77.08;73125.31;5021898;28;20236;-79
2023/12/12 05:52:36;;;;;;;54.73;27.67;;;;;;;-143.21;76.96;73123.34;5022247;28;20202;-78
2023/12/12 05:55:05;;;;;;;54.37;27.57;;;;;;;-143.21;77.11;73125.31;5024722;28;20294;-80
2023/12/12 05:57:32;;;;;;;56.80;28.53;;;;;;;-143.21;77.01;73119.38;5024506;28;20214;-77
2023/12/12 05:59:59;;;;;;;54.60;28.73;;;;;;;-143.21;77.37;73129.28;5023676;28;20218;-77
2023/12/12 06:02:25;;;;;;;52.17;28.67;;;;;;;-143.21;77.27;73129.28;5023741;28;20210;-77
2023/12/12 06:04:54;;;;;;;65.20;30.57;;;;;;;-143.21;76.96;73129.28;5027873;28;20313;-77
2023/12/12 06:07:21;;;;;;;59.10;30.17;;;;;;;-143.21;77.48;73137.22;5030472;28;20213;-78
2023/12/12 06:09:48;;;;;;;59.20;30.07;;;;;;;-143.21;77.35;73133.25;5029625;28;20228;-78
2023/12/12 06:12:17;;;;;;;57.53;29.27;;;;;;;-143.21;77.53;73123.34;5028748;28;20229;-77
2023/12/12 06:14:44;;;;;;;60.93;29.43;;;;;;;-143.21;77.82;73145.16;5028864;28;20525;-77
2023/12/12 06:17:11;;;;;;;59.33;29.20;;;;;;;-143.21;77.99;73168.97;5029707;28;20222;-78
2023/12/12 06:19:38;;;;;;;53.30;27.00;;;;;;;-143.21;80.47;73186.81;5031435;28;20201;-77
2023/12/12 06:22:07;;;;;;;50.13;25.40;;;;;;;-143.21;81.16;73184.84;5029009;28;20200;-78
2023/12/12 06:24:34;;;;;;;57.90;25.43;;;;;;;-143.21;81.39;73168.97;5028767;28;20239;-78
2023/12/12 06:27:01;;;;;;;42.30;22.13;;;;;;;-143.21;81.08;73161.03;5027913;28;21254;-79
2023/12/12 06:29:28;;;;;;;50.13;21.70;;;;;;;-143.21;80.32;73157.06;5030479;28;20221;-79
2023/12/12 06:31:54;;;;;;;49.40;19.53;;;;;;;-143.21;80.52;73161.03;5028992;28;20210;-79
2023/12/12 06:34:21;;;;;;;47.13;21.17;;;;;;;-143.21;80.62;73141.19;5028869;28;20209;-77
2023/12/12 06:36:48;;;;;;;41.70;22.33;;;;;;;-143.21;80.11;73121.34;5028653;28;20211;-78
2023/12/12 06:39:16;;;;;;;48.33;22.60;;;;;;;-143.21;79.02;73103.50;5029108;28;20213;-77
2023/12/12 06:41:43;;;;;;;51.67;23.27;;;;;;;-143.21;78.67;73097.56;5029994;28;20226;-79
2023/12/12 06:44:10;;;;;;;41.53;22.83;;;;;;;-143.21;78.89;73095.56;5028751;28;20715;-77
2023/12/12 06:46:38;;;;;;;54.10;22.00;;;;;;;-143.21;78.55;73101.53;5029069;28;20237;-78
2023/12/12 06:49:06;;;;;;;54.13;23.00;;;;;;;-143.21;77.96;73091.59;5029035;28;20243;-78
2023/12/12 06:51:33;;;;;;;50.77;22.37;;;;;;;-143.21;77.25;73083.66;5030522;28;20297;-78
2023/12/12 06:54:00;;;;;;;41.70;23.33;;;;;;;-143.21;76.60;73079.69;5028458;28;21423;-79
2023/12/12 06:56:28;;;;;;;52.80;22.80;;;;;;;-143.21;76.41;73069.78;5028512;28;20685;-78
2023/12/12 06:58:55;;;;;;;49.93;22.60;;;;;;;-143.21;76.03;73071.75;5028533;28;20253;-80
2023/12/12 07:01:22;;;;;;;51.30;22.80;;;;;;;-143.21;76.28;73077.72;5029183;28;20209;-79
2023/12/12 07:03:49;;;;;;;44.00;23.40;;;;;;;-143.21;76.67;73079.69;5029592;28;20313;-79
2023/12/12 07:06:17;;;;;;;42.37;22.77;;;;;;;-143.21;77.07;73071.75;5027870;28;20218;-78
2023/12/12 07:08:44;;;;;;;40.37;21.83;;;;;;;-143.21;75.97;73053.91;5028184;28;20289;-77
2023/12/12 07:11:11;;;;;;;42.73;20.57;;;;;;;-143.21;76.14;73055.91;5028296;28;20261;-78
2023/12/12 07:13:39;;;;;;;39.57;19.17;;;;;;;-143.21;75.37;73040.03;5030178;28;20234;-79
2023/12/12 07:16:09;;;;;;;40.90;19.13;;;;;;;-143.21;74.36;73042.00;5027489;28;20707;-79
2023/12/12 07:18:37;;;;;;;41.53;21.57;;;;;;;-143.21;74.24;73071.75;5028422;28;20210;-79
2023/12/12 07:21:03;;;;;;;45.83;23.97;;;;;;;-143.21;75.85;73103.50;5028404;28;20210;-78
2023/12/12 07:23:30;;;;;;;51.60;25.30;;;;;;;-143.21;77.23;73125.31;5028717;28;20215;-79
2023/12/12 07:25:58;;;;;;;53.80;25.57;;;;;;;-143.21;77.81;73125.31;5029476;28;20408;-77
2023/12/12 07:28:24;;;;;;;49.77;26.30;;;;;;;-143.21;78.03;73103.50;5027628;28;20217;-78
2023/12/12 07:30:53;;;;;;;64.23;26.87;;;;;;;-143.21;77.57;73087.63;5025040;28;20206;-80
2023/12/12 07:33:20;;;;;;;51.53;26.57;;;;;;;-143.21;78.05;73071.75;5027700;28;20221;-79
2023/12/12 07:35:47;;;;;;;64.53;29.87;;;;;;;-143.21;77.90;73051.94;5030575;28;20203;-77
2023/12/12 07:38:14;;;;;;;64.37;29.07;;;;;;;-143.21;76.84;73042.00;5027200;28;20700;-78
2023/12/12 07:40:42;;;;;;;56.50;27.53;;;;;;;-143.21;76.48;73024.16;5027515;28;20221;-79
2023/12/12 07:43:08;;;;;;;55.43;27.23;;;;;;;-143.21;75.46;72998.38;5028245;28;20271;-79
2023/12/12 07:45:35;;;;;;;45.40;22.50;;;;;;;-143.21;74.88;72984.50;5028996;28;20226;-78
2023/12/12 07:48:04;;;;;;;49.33;22.93;;;;;;;-143.21;73.96;72982.50;5010675;28;20217;-78
2023/12/12 07:50:31;;;;;;;38.30;19.73;;;;;;;-143.21;73.57;72974.56;5027359;28;20222;-79
2023/12/12 07:52:58;;;;;;;42.23;19.80;;;;;;;-143.21;73.52;72964.66;5027124;28;20337;-78
2023/12/12 07:55:25;;;;;;;39.13;19.93;;;;;;;-143.21;73.37;72944.81;5027153;28;20264;-78
2023/12/12 07:57:52;;;;;;;39.77;17.60;;;;;;;-143.21;72.86;72932.91;5029688;28;20202;-77
2023/12/12 08:00:19;;;;;;;35.70;17.43;;;;;;;-143.21;73.05;72921.00;5026593;28;20195;-77
2023/12/12 08:02:46;;;;;;;35.37;16.23;;;;;;;-143.21;72.09;72915.06;5026774;28;20213;-77
2023/12/12 08:05:14;;;;;;;31.77;15.43;;;;;;;-143.21;72.10;72921.00;5026838;28;20234;-78
2023/12/12 08:07:41;;;;;;;31.00;15.13;;;;;;;-143.21;72.20;72901.19;5030524;28;20213;-88
2023/12/12 08:10:09;;;;;;;35.57;14.67;;;;;;;-143.21;71.40;72893.25;5032496;28;20230;-78
2023/12/12 08:12:36;;;;;;;25.30;11.73;;;;;;;-143.21;71.23;72891.25;5029290;28;20227;-82
2023/12/12 08:15:04;;;;;;;24.23;11.77;;;;;;;-143.21;72.31;72877.38;5029926;28;20206;-85
2023/12/12 08:17:31;;;;;;;23.33;11.23;;;;;;;-143.21;71.60;72883.31;5029670;28;20963;-86
2023/12/12 08:19:58;;;;;;;22.80;10.17;;;;;;;-143.21;72.71;72883.31;5030355;28;20214;-84
2023/12/12 08:22:26;;;;;;;21.27;8.93;;;;;;;-143.21;72.27;72883.31;5029393;28;20199;-84
2023/12/12 08:24:54;;;;;;;20.43;8.87;;;;;;;-143.21;71.62;72869.44;5029396;28;20276;-83
2023/12/12 08:27:23;;;;;;;14.40;7.40;;;;;;;-143.21;71.05;72841.69;5030396;28;20282;-86
2023/12/12 08:29:49;;;;;;;23.13;7.47;;;;;;;-143.21;71.03;72829.78;5031926;28;20210;-85
2023/12/12 08:32:17;;;;;;;15.40;7.33;;;;;;;-143.21;70.10;72796.06;5032063;28;20233;-86
2023/12/12 08:34:44;;;;;;;20.53;7.93;;;;;;;-143.21;70.05;72788.13;5030265;28;20253;-87
2023/12/12 08:37:13;;;;;;;18.43;8.37;;;;;;;-143.21;69.93;72782.16;5030030;28;20210;-85
2023/12/12 08:39:41;;;;;;;22.07;8.37;;;;;;;-143.21;69.66;72768.28;5030610;28;20214;-86
2023/12/12 08:42:08;;;;;;;20.47;7.97;;;;;;;-143.21;68.45;72756.38;5030941;28;20199;-86
2023/12/12 08:44:35;;;;;;;17.47;7.47;;;;;;;-143.21;68.17;72752.41;5029524;28;20237;-86
2023/12/12 08:47:02;;;;;;;17.83;7.67;;;;;;;-143.21;67.29;72754.41;5029651;28;20272;-84
2023/12/12 08:49:29;;;;;;;17.90;6.93;;;;;;;-143.21;66.92;72748.47;5029395;28;20206;-84
2023/12/12 08:51:56;;;;;;;11.70;6.97;;;;;;;-143.21;66.44;72744.50;5030739;28;20669;-84
2023/12/12 08:54:24;;;;;;;21.57;7.37;;;;;;;-143.21;65.88;72740.53;5029132;28;20210;-84
2023/12/12 08:56:52;;;;;;;18.20;7.40;;;;;;;-143.21;65.43;72726.63;5029565;28;20682;-83
2023/12/12 08:59:21;;;;;;;15.93;6.83;;;;;;;-143.21;65.74;72716.72;5029652;28;20238;-85
2023/12/12 09:01:48;;;;;;;19.17;6.80;;;;;;;-143.21;65.70;72708.78;5028938;28;20269;-80
2023/12/12 09:04:16;;;;;;;19.20;6.80;;;;;;;-143.21;64.63;72708.78;5030274;28;20202;-84
2023/12/12 09:06:44;;;;;;;13.97;7.00;;;;;;;-143.21;65.10;72702.84;5031236;28;20206;-88
2023/12/12 09:09:12;;;;;;;20.67;7.30;;;;;;;-143.21;64.30;72688.94;5030666;28;20206;-87
2023/12/12 09:11:39;;;;;;;18.87;6.63;;;;;;;-143.21;63.98;72692.91;5026263;28;20760;-86
2023/12/12 09:14:08;;;;;;;14.10;6.20;;;;;;;-143.21;63.88;72690.94;5031272;28;20297;-87
2023/12/12 09:16:35;;;;;;;20.07;6.73;;;;;;;-143.21;64.25;72694.91;5031129;28;20198;-86
2023/12/12 09:19:02;;;;;;;21.23;6.43;;;;;;;-143.21;64.30;72704.81;5031533;28;20215;-85
2023/12/12 09:21:28;;;;;;;19.33;6.10;;;;;;;-143.21;64.05;72700.84;5016637;28;20683;-86
2023/12/12 09:23:55;;;;;;;16.83;6.37;;;;;;;-143.21;63.85;72694.91;5028192;28;20561;-83
2023/12/12 09:26:22;;;;;;;18.83;6.37;;;;;;;-143.21;63.95;72694.91;5030345;28;20218;-84
2023/12/12 09:28:49;;;;;;;16.13;6.03;;;;;;;-143.21;63.03;72692.91;5029133;28;20213;-85
2023/12/12 09:31:25;;;;;;;12.03;6.07;;;;;;;-143.21;63.17;72688.94;5029338;28;20206;-79
2023/12/12 09:33:53;;;;;;;16.20;6.60;;;;;;;-143.21;63.24;72677.06;5030084;28;20252;-85
2023/12/12 09:36:20;;;;;;;10.33;4.67;;;;;;;-143.21;63.09;72667.13;5030992;28;20198;-83
2023/12/12 09:38:47;;;;;;;10.20;4.67;;;;;;;-143.21;63.04;72655.25;5032184;28;20203;-86
2023/12/12 09:41:18;;;;;;;9.53;4.30;;;;;;;-143.21;62.40;72631.44;5033736;28;20206;-85
2023/12/12 09:43:48;;;;;;;9.93;4.60;;;;;;;-143.21;61.47;72603.66;5034880;28;20199;-85
2023/12/12 09:46:16;;;;;;;11.93;5.50;;;;;;;-143.21;59.92;72575.91;5034434;28;20226;-84
2023/12/12 09:48:46;;;;;;;9.23;5.33;;;;;;;-143.21;59.55;72550.13;5034462;28;20209;-84
2023/12/12 09:51:14;;;;;;;12.30;6.17;;;;;;;-143.21;58.61;72522.34;5033508;28;20195;-85
2023/12/12 09:53:46;;;;;;;17.70;7.20;;;;;;;-143.21;58.36;72450.97;5032039;28;20195;-83
2023/12/12 09:56:16;;;;;;;9.87;4.40;;;;;;;-143.21;55.14;72395.44;5032786;28;20201;-85
2023/12/12 09:58:46;;;;;;;6.93;4.63;;;;;;;-143.21;54.30;72357.75;5034075;28;20207;-85
2023/12/12 10:01:13;;;;;;;10.57;5.10;;;;;;;-143.21;52.25;72262.56;5033328;28;20628;-85
2023/12/12 10:03:40;;;;;;;6.20;3.87;;;;;;;-143.21;50.07;72209.00;5032795;28;20653;-84
2023/12/12 10:06:10;;;;;;;7.20;3.83;;;;;;;-143.21;49.65;72205.03;5029539;28;20281;-85
2023/12/12 10:08:38;;;;;;;7.77;3.20;;;;;;;-143.21;50.36;72216.94;5032705;28;20203;-84
2023/12/12 10:11:08;;;;;;;7.43;3.73;;;;;;;-143.21;49.65;72169.34;5033951;28;20649;-84
2023/12/12 10:13:50;;;;;;;5.00;3.40;;;;;;;-143.21;47.50;72086.06;5039711;28;20230;-84
2023/12/12 10:16:17;;;;;;;9.97;3.83;;;;;;;-143.21;46.23;72046.41;5024656;28;20199;-83
2023/12/12 10:18:46;;;;;;;10.43;3.50;;;;;;;-143.21;45.39;72010.72;5035857;28;20210;-85
2023/12/12 10:21:19;;;;;;;6.37;3.23;;;;;;;-143.21;46.02;72076.16;5042402;28;20664;-85
2023/12/12 10:23:46;;;;;;;5.37;3.17;;;;;;;-143.21;47.79;72169.34;5040591;28;20214;-85
2023/12/12 10:26:14;;;;;;;3.80;2.70;;;;;;;-143.21;48.98;72244.72;5040290;28;20226;-87
2023/12/12 10:28:42;;;;;;;6.30;3.13;;;;;;;-143.21;51.13;72308.16;5043414;28;20726;-86
2023/12/12 10:31:09;;;;;;;3.57;2.70;;;;;;;-143.21;52.46;72345.84;5037588;28;20641;-85
2023/12/12 10:33:36;;;;;;;10.53;2.90;;;;;;;-143.21;52.91;72357.75;5043243;28;20270;-85
2023/12/12 10:36:03;;;;;;;6.37;2.90;;;;;;;-143.21;53.41;72359.72;5036619;28;20198;-86
2023/12/12 10:38:35;;;;;;;7.53;3.20;;;;;;;-143.21;53.15;72343.88;5041671;28;20206;-85
2023/12/12 10:41:12;;;;;;;6.77;4.20;;;;;;;-143.21;53.07;72337.91;5048925;28;20598;-85
2023/12/12 10:43:41;;;;;;;7.00;4.57;;;;;;;-143.21;53.81;72367.66;5036869;28;20218;-86
2023/12/12 10:46:10;;;;;;;11.27;4.30;;;;;;;-143.21;54.17;72373.63;5036760;28;20222;-86
2023/12/12 10:48:43;;;;;;;11.10;3.80;;;;;;;-143.21;54.55;72385.50;5032201;28;20226;-84
2023/12/12 10:51:11;;;;;;;15.20;4.40;;;;;;;-143.21;54.53;72399.41;5039008;28;20203;-83
2023/12/12 10:53:42;;;;;;;13.23;5.47;;;;;;;-143.21;54.88;72407.31;5040601;28;20664;-85
2023/12/12 10:56:10;;;;;;;10.10;5.07;;;;;;;-143.21;54.65;72417.25;5033605;28;20210;-85
2023/12/12 10:58:39;;;;;;;9.73;4.57;;;;;;;-143.21;54.81;72427.16;5043920;28;20209;-86
2023/12/12 11:01:08;;;;;;;10.83;4.83;;;;;;;-143.21;55.46;72445.00;5038845;28;20650;-84
2023/12/12 11:03:37;;;;;;;18.57;5.00;;;;;;;-143.21;55.83;72476.75;5040100;28;20293;-84
2023/12/12 11:06:05;;;;;;;14.20;5.10;;;;;;;-143.21;56.35;72494.59;5043828;28;20226;-85
2023/12/12 11:08:33;;;;;;;11.43;5.10;;;;;;;-143.21;56.69;72498.56;5036414;28;20948;-85